Rivesville, WV (26588)

3:58 AM EST on February 09, 2016 (GMT -0500)
Rivesville | | Change Station
CLOSE
Current Station
Personal Weather Station
Location: Rivesville, WV
Elevation: 942 ft
Nearby Weather Stations
Active Advisory: Winter Weather Advisory

Elev 942 ft 39.53 °N, 80.13 °W | Updated 2 minutes ago

Snow
Snow
32.2 °F
Feels Like 32 °F
N
0.0
Wind Variable Wind from South

Today
High -- | Low -- °F
--% Chance of Precip.
Yesterday
High -- | Low -- °F
Precip. -- in
Pressure 29.56 in
Visibility 0.5 miles
Clouds
Windchill 32 °F
Dew Point 32 °F
Humidity 99%
Rainfall 0.00 in
Snow Depth Not available.
7:20 AM 5:49 PM
New Moon, 1% visible
METAR KMGW 090853Z AUTO 00000KT 1/2SM SN FG VV003 00/M02 A2953 RMK AO2 SLP008 P0011 60016 T00001022 56017 TSNO
Pressure 29.56 in
Visibility 0.5 miles
Clouds
Windchill 32 °F
Dew Point 32 °F
Humidity 99%
Rainfall 0.00 in
Snow Depth Not available.
7:20 AM 5:49 PM
New Moon, 1% visible
METAR KMGW 090853Z AUTO 00000KT 1/2SM SN FG VV003 00/M02 A2953 RMK AO2 SLP008 P0011 60016 T00001022 56017 TSNO

10-Day Weather Forecast

Almanac

Astronomy

Feb. 09, 2016 Rise Set
Actual Time
Civil Twilight
Nautical Twilight
Astronomical Twilight
Moon
Length of Visible Light
Length of Day
Tomorrow will be .
, % of the Moon is Illuminated

Today's Extremes

State Highs State Lows

Community

WunderPhotos

Upload Photos

1,891,571 photos uploaded!

WunderBlog® & News

Nearby

Air Quality

  Air Quality AQ Index Pollutant
Not available.

Snow Depth

Station Depth Elevation

Earthquake Activity

City Distance Mag. Time & Date
Minimum magnitude displayed is 2.5.

Coastal Water Temperatures

Place Temperature

Stations

Nearby Weather Stations

Station Location Temp. Windchill Dew Point Humidity Wind Precip. Elev Updated Type
                   

Watches & Warnings

Winter Weather Advisory
Issued: 3:13 AM EST Feb. 9, 2016 – National Weather Service

... Winter Weather Advisory remains in effect until 7 am EST
Wednesday...

* snow accumulation... 3 to 5 inches.

* Period of most intense snow... through this evening.

* Snow ending... snow showers will gradually taper down through
Tuesday night.

* Impacts... hazardous travel conditions are expected due to snow.

Precautionary/preparedness actions...

A Winter Weather Advisory for snow means that periods of snow
will cause primarily travel difficulties. Be prepared for snow
covered roads and limited visibilities... and use caution while
driving.